sensor_id;sensor_type;location;lat;lon;timestamp;temperature;humidity
81315;DHT22;72214;52.510;5.718;2023-12-20T00:01:30;6.60;84.20
81315;DHT22;72214;52.510;5.718;2023-12-20T00:04:02;6.60;84.20
81315;DHT22;72214;52.510;5.718;2023-12-20T00:06:31;6.60;84.20
81315;DHT22;72214;52.510;5.718;2023-12-20T00:09:00;6.60;84.20
81315;DHT22;72214;52.510;5.718;2023-12-20T00:11:29;6.50;84.20
81315;DHT22;72214;52.510;5.718;2023-12-20T00:13:59;6.50;84.20
81315;DHT22;72214;52.510;5.718;2023-12-20T00:16:28;6.50;84.30
81315;DHT22;72214;52.510;5.718;2023-12-20T00:18:57;6.50;84.30
81315;DHT22;72214;52.510;5.718;2023-12-20T00:21:29;6.50;84.20
81315;DHT22;72214;52.510;5.718;2023-12-20T00:23:58;6.50;84.20
81315;DHT22;72214;52.510;5.718;2023-12-20T00:26:27;6.50;84.20
81315;DHT22;72214;52.510;5.718;2023-12-20T00:28:57;6.40;84.10
81315;DHT22;72214;52.510;5.718;2023-12-20T00:31:26;6.40;84.20
81315;DHT22;72214;52.510;5.718;2023-12-20T00:33:55;6.40;84.30
81315;DHT22;72214;52.510;5.718;2023-12-20T00:36:24;6.40;84.20
81315;DHT22;72214;52.510;5.718;2023-12-20T00:38:55;6.40;84.10
81315;DHT22;72214;52.510;5.718;2023-12-20T00:41:25;6.30;84.20
81315;DHT22;72214;52.510;5.718;2023-12-20T00:43:54;6.30;84.20
81315;DHT22;72214;52.510;5.718;2023-12-20T00:46:23;6.30;84.20
81315;DHT22;72214;52.510;5.718;2023-12-20T00:48:52;6.30;84.30
81315;DHT22;72214;52.510;5.718;2023-12-20T00:51:21;6.30;84.30
81315;DHT22;72214;52.510;5.718;2023-12-20T00:53:51;6.20;84.20
81315;DHT22;72214;52.510;5.718;2023-12-20T00:56:23;6.30;84.20
81315;DHT22;72214;52.510;5.718;2023-12-20T00:58:52;6.20;84.20
81315;DHT22;72214;52.510;5.718;2023-12-20T01:01:22;6.20;84.20
81315;DHT22;72214;52.510;5.718;2023-12-20T01:03:51;6.20;84.30
81315;DHT22;72214;52.510;5.718;2023-12-20T01:06:20;6.20;84.10
81315;DHT22;72214;52.510;5.718;2023-12-20T01:08:49;6.20;84.10
81315;DHT22;72214;52.510;5.718;2023-12-20T01:11:18;6.20;84.10
81315;DHT22;72214;52.510;5.718;2023-12-20T01:13:50;6.20;84.10
81315;DHT22;72214;52.510;5.718;2023-12-20T01:16:19;6.20;84.10
81315;DHT22;72214;52.510;5.718;2023-12-20T01:18:48;6.30;84.10
81315;DHT22;72214;52.510;5.718;2023-12-20T01:21:18;6.20;84.00
81315;DHT22;72214;52.510;5.718;2023-12-20T01:23:47;6.30;84.10
81315;DHT22;72214;52.510;5.718;2023-12-20T01:26:16;6.20;84.10
81315;DHT22;72214;52.510;5.718;2023-12-20T01:28:45;6.20;84.00
81315;DHT22;72214;52.510;5.718;2023-12-20T01:31:17;6.30;84.10
81315;DHT22;72214;52.510;5.718;2023-12-20T01:33:46;6.20;84.10
81315;DHT22;72214;52.510;5.718;2023-12-20T01:36:15;6.20;84.10
81315;DHT22;72214;52.510;5.718;2023-12-20T01:38:47;6.20;84.10
81315;DHT22;72214;52.510;5.718;2023-12-20T01:41:16;6.20;84.10
81315;DHT22;72214;52.510;5.718;2023-12-20T01:43:45;6.20;84.10
81315;DHT22;72214;52.510;5.718;2023-12-20T01:46:17;6.20;84.10
81315;DHT22;72214;52.510;5.718;2023-12-20T01:48:47;6.20;84.10
81315;DHT22;72214;52.510;5.718;2023-12-20T01:51:17;6.20;84.10
81315;DHT22;72214;52.510;5.718;2023-12-20T01:53:47;6.20;84.10
81315;DHT22;72214;52.510;5.718;2023-12-20T01:56:16;6.20;84.10
81315;DHT22;72214;52.510;5.718;2023-12-20T01:58:46;6.20;84.10
81315;DHT22;72214;52.510;5.718;2023-12-20T02:01:19;6.30;84.10
81315;DHT22;72214;52.510;5.718;2023-12-20T02:03:48;6.30;84.10
81315;DHT22;72214;52.510;5.718;2023-12-20T02:06:16;6.30;84.10
81315;DHT22;72214;52.510;5.718;2023-12-20T02:08:46;6.30;84.10
81315;DHT22;72214;52.510;5.718;2023-12-20T02:11:15;6.30;84.10
81315;DHT22;72214;52.510;5.718;2023-12-20T02:13:45;6.30;84.00
81315;DHT22;72214;52.510;5.718;2023-12-20T02:16:14;6.30;84.00
81315;DHT22;72214;52.510;5.718;2023-12-20T02:18:45;6.30;84.00
81315;DHT22;72214;52.510;5.718;2023-12-20T02:21:15;6.40;84.00
81315;DHT22;72214;52.510;5.718;2023-12-20T02:23:46;6.40;84.00
81315;DHT22;72214;52.510;5.718;2023-12-20T02:26:15;6.40;84.00
81315;DHT22;72214;52.510;5.718;2023-12-20T02:28:45;6.40;84.00
81315;DHT22;72214;52.510;5.718;2023-12-20T02:31:14;6.40;84.00
81315;DHT22;72214;52.510;5.718;2023-12-20T02:33:43;6.40;84.00
81315;DHT22;72214;52.510;5.718;2023-12-20T02:36:12;6.40;84.00
81315;DHT22;72214;52.510;5.718;2023-12-20T02:38:41;6.50;84.00
81315;DHT22;72214;52.510;5.718;2023-12-20T02:41:13;6.50;84.00
81315;DHT22;72214;52.510;5.718;2023-12-20T02:43:44;6.50;84.10
81315;DHT22;72214;52.510;5.718;2023-12-20T02:46:14;6.50;84.10
81315;DHT22;72214;52.510;5.718;2023-12-20T02:48:44;6.50;84.00
81315;DHT22;72214;52.510;5.718;2023-12-20T02:51:13;6.50;84.00
81315;DHT22;72214;52.510;5.718;2023-12-20T02:53:43;6.50;84.10
81315;DHT22;72214;52.510;5.718;2023-12-20T02:56:14;6.60;84.10
81315;DHT22;72214;52.510;5.718;2023-12-20T02:58:43;6.60;84.10
81315;DHT22;72214;52.510;5.718;2023-12-20T03:01:12;6.60;84.00
81315;DHT22;72214;52.510;5.718;2023-12-20T03:03:41;6.60;84.00
81315;DHT22;72214;52.510;5.718;2023-12-20T03:06:11;6.60;84.00
81315;DHT22;72214;52.510;5.718;2023-12-20T03:08:40;6.60;84.00
81315;DHT22;72214;52.510;5.718;2023-12-20T03:11:09;6.60;84.00
81315;DHT22;72214;52.510;5.718;2023-12-20T03:13:40;6.70;84.00
81315;DHT22;72214;52.510;5.718;2023-12-20T03:16:10;6.60;84.00
81315;DHT22;72214;52.510;5.718;2023-12-20T03:18:39;6.70;84.00
81315;DHT22;72214;52.510;5.718;2023-12-20T03:21:08;6.70;84.10
81315;DHT22;72214;52.510;5.718;2023-12-20T03:23:37;6.70;84.00
81315;DHT22;72214;52.510;5.718;2023-12-20T03:26:07;6.70;83.90
81315;DHT22;72214;52.510;5.718;2023-12-20T03:28:36;6.70;83.90
81315;DHT22;72214;52.510;5.718;2023-12-20T03:31:09;6.80;83.90
81315;DHT22;72214;52.510;5.718;2023-12-20T03:33:38;6.80;83.90
81315;DHT22;72214;52.510;5.718;2023-12-20T03:36:08;6.80;83.70
81315;DHT22;72214;52.510;5.718;2023-12-20T03:38:37;6.80;83.80
81315;DHT22;72214;52.510;5.718;2023-12-20T03:41:07;6.80;83.80
81315;DHT22;72214;52.510;5.718;2023-12-20T03:43:36;6.80;83.80
81315;DHT22;72214;52.510;5.718;2023-12-20T03:46:08;6.80;83.70
81315;DHT22;72214;52.510;5.718;2023-12-20T03:48:37;6.80;83.70
81315;DHT22;72214;52.510;5.718;2023-12-20T03:51:06;6.80;83.90
81315;DHT22;72214;52.510;5.718;2023-12-20T03:53:35;6.70;83.90
81315;DHT22;72214;52.510;5.718;2023-12-20T03:56:06;6.70;83.90
81315;DHT22;72214;52.510;5.718;2023-12-20T03:58:35;6.70;83.90
81315;DHT22;72214;52.510;5.718;2023-12-20T04:01:11;6.80;83.80
81315;DHT22;72214;52.510;5.718;2023-12-20T04:03:41;6.80;83.80
81315;DHT22;72214;52.510;5.718;2023-12-20T04:06:10;6.80;83.70
81315;DHT22;72214;52.510;5.718;2023-12-20T04:08:39;6.80;83.70
81315;DHT22;72214;52.510;5.718;2023-12-20T04:11:08;6.80;83.60
81315;DHT22;72214;52.510;5.718;2023-12-20T04:13:37;6.80;83.70
81315;DHT22;72214;52.510;5.718;2023-12-20T04:16:06;6.80;83.70
81315;DHT22;72214;52.510;5.718;2023-12-20T04:18:38;6.80;83.70
81315;DHT22;72214;52.510;5.718;2023-12-20T04:21:07;6.70;83.70
81315;DHT22;72214;52.510;5.718;2023-12-20T04:23:36;6.70;83.70
81315;DHT22;72214;52.510;5.718;2023-12-20T04:26:05;6.70;83.60
81315;DHT22;72214;52.510;5.718;2023-12-20T04:28:34;6.70;83.70
81315;DHT22;72214;52.510;5.718;2023-12-20T04:31:03;6.70;83.70
81315;DHT22;72214;52.510;5.718;2023-12-20T04:33:32;6.70;83.70
81315;DHT22;72214;52.510;5.718;2023-12-20T04:36:04;6.70;83.70
81315;DHT22;72214;52.510;5.718;2023-12-20T04:38:35;6.70;83.70
81315;DHT22;72214;52.510;5.718;2023-12-20T04:41:04;6.70;83.70
81315;DHT22;72214;52.510;5.718;2023-12-20T04:43:33;6.70;83.70
81315;DHT22;72214;52.510;5.718;2023-12-20T04:46:02;6.70;83.70
81315;DHT22;72214;52.510;5.718;2023-12-20T04:48:31;6.80;83.60
81315;DHT22;72214;52.510;5.718;2023-12-20T04:51:00;6.80;83.70
81315;DHT22;72214;52.510;5.718;2023-12-20T04:53:32;6.80;83.60
81315;DHT22;72214;52.510;5.718;2023-12-20T04:56:01;6.80;83.70
81315;DHT22;72214;52.510;5.718;2023-12-20T04:58:30;6.80;83.60
81315;DHT22;72214;52.510;5.718;2023-12-20T05:01:00;6.80;83.60
81315;DHT22;72214;52.510;5.718;2023-12-20T05:03:29;6.90;83.70
81315;DHT22;72214;52.510;5.718;2023-12-20T05:05:58;6.90;83.60
81315;DHT22;72214;52.510;5.718;2023-12-20T05:08:27;6.90;83.60
81315;DHT22;72214;52.510;5.718;2023-12-20T05:10:59;6.90;83.60
81315;DHT22;72214;52.510;5.718;2023-12-20T05:13:28;6.90;83.60
81315;DHT22;72214;52.510;5.718;2023-12-20T05:15:57;6.90;83.50
81315;DHT22;72214;52.510;5.718;2023-12-20T05:18:26;7.00;83.50
81315;DHT22;72214;52.510;5.718;2023-12-20T05:20:55;6.90;83.60
81315;DHT22;72214;52.510;5.718;2023-12-20T05:23:24;6.90;83.60
81315;DHT22;72214;52.510;5.718;2023-12-20T05:25:53;6.90;83.60
81315;DHT22;72214;52.510;5.718;2023-12-20T05:28:25;6.90;83.60
81315;DHT22;72214;52.510;5.718;2023-12-20T05:30:54;7.00;83.60
81315;DHT22;72214;52.510;5.718;2023-12-20T05:33:24;7.00;83.60
81315;DHT22;72214;52.510;5.718;2023-12-20T05:35:53;7.00;83.60
81315;DHT22;72214;52.510;5.718;2023-12-20T05:38:22;7.00;83.50
81315;DHT22;72214;52.510;5.718;2023-12-20T05:40:51;7.00;83.50
81315;DHT22;72214;52.510;5.718;2023-12-20T05:43:20;7.00;83.40
81315;DHT22;72214;52.510;5.718;2023-12-20T05:45:52;7.10;83.40
81315;DHT22;72214;52.510;5.718;2023-12-20T05:48:21;7.10;83.40
81315;DHT22;72214;52.510;5.718;2023-12-20T05:50:50;7.10;83.30
81315;DHT22;72214;52.510;5.718;2023-12-20T05:53:19;7.20;83.30
81315;DHT22;72214;52.510;5.718;2023-12-20T05:55:48;7.20;83.30
81315;DHT22;72214;52.510;5.718;2023-12-20T05:58:17;7.20;83.30
81315;DHT22;72214;52.510;5.718;2023-12-20T06:00:47;7.20;83.30
81315;DHT22;72214;52.510;5.718;2023-12-20T06:03:18;7.20;83.20
81315;DHT22;72214;52.510;5.718;2023-12-20T06:05:47;7.20;83.20
81315;DHT22;72214;52.510;5.718;2023-12-20T06:08:16;7.20;83.20
81315;DHT22;72214;52.510;5.718;2023-12-20T06:10:45;7.20;83.20
81315;DHT22;72214;52.510;5.718;2023-12-20T06:13:15;7.20;83.20
81315;DHT22;72214;52.510;5.718;2023-12-20T06:15:44;7.30;83.20
81315;DHT22;72214;52.510;5.718;2023-12-20T06:18:13;7.30;83.20
81315;DHT22;72214;52.510;5.718;2023-12-20T06:20:44;7.30;83.20
81315;DHT22;72214;52.510;5.718;2023-12-20T06:23:13;7.30;83.20
81315;DHT22;72214;52.510;5.718;2023-12-20T06:25:43;7.30;83.20
81315;DHT22;72214;52.510;5.718;2023-12-20T06:28:12;7.30;83.20
81315;DHT22;72214;52.510;5.718;2023-12-20T06:30:43;7.30;83.20
81315;DHT22;72214;52.510;5.718;2023-12-20T06:33:13;7.30;83.30
81315;DHT22;72214;52.510;5.718;2023-12-20T06:35:45;7.40;83.20
81315;DHT22;72214;52.510;5.718;2023-12-20T06:38:14;7.40;83.20
81315;DHT22;72214;52.510;5.718;2023-12-20T06:40:43;7.40;83.20
81315;DHT22;72214;52.510;5.718;2023-12-20T06:43:12;7.40;83.20
81315;DHT22;72214;52.510;5.718;2023-12-20T06:45:42;7.40;83.20
81315;DHT22;72214;52.510;5.718;2023-12-20T06:48:11;7.40;83.20
81315;DHT22;72214;52.510;5.718;2023-12-20T06:50:40;7.40;83.20
81315;DHT22;72214;52.510;5.718;2023-12-20T06:53:12;7.50;83.20
81315;DHT22;72214;52.510;5.718;2023-12-20T06:55:41;7.50;83.20
81315;DHT22;72214;52.510;5.718;2023-12-20T06:58:10;7.50;83.20
81315;DHT22;72214;52.510;5.718;2023-12-20T07:00:39;7.50;83.10
81315;DHT22;72214;52.510;5.718;2023-12-20T07:03:09;7.50;83.20
81315;DHT22;72214;52.510;5.718;2023-12-20T07:05:38;7.50;83.20
81315;DHT22;72214;52.510;5.718;2023-12-20T07:08:07;7.50;83.10
81315;DHT22;72214;52.510;5.718;2023-12-20T07:10:39;7.50;83.10
81315;DHT22;72214;52.510;5.718;2023-12-20T07:13:08;7.50;83.10
81315;DHT22;72214;52.510;5.718;2023-12-20T07:15:38;7.50;83.00
81315;DHT22;72214;52.510;5.718;2023-12-20T07:18:05;7.50;83.00
81315;DHT22;72214;52.510;5.718;2023-12-20T07:20:34;7.50;83.10
81315;DHT22;72214;52.510;5.718;2023-12-20T07:23:03;7.50;83.10
81315;DHT22;72214;52.510;5.718;2023-12-20T07:25:33;7.50;83.00
81315;DHT22;72214;52.510;5.718;2023-12-20T07:28:05;7.60;83.10
81315;DHT22;72214;52.510;5.718;2023-12-20T07:30:34;7.50;83.00
81315;DHT22;72214;52.510;5.718;2023-12-20T07:33:04;7.60;83.00
81315;DHT22;72214;52.510;5.718;2023-12-20T07:35:35;7.60;83.00
81315;DHT22;72214;52.510;5.718;2023-12-20T07:38:04;7.60;83.10
81315;DHT22;72214;52.510;5.718;2023-12-20T07:40:33;7.60;83.10
81315;DHT22;72214;52.510;5.718;2023-12-20T07:43:05;7.60;83.00
81315;DHT22;72214;52.510;5.718;2023-12-20T07:45:34;7.60;83.00
81315;DHT22;72214;52.510;5.718;2023-12-20T07:48:05;7.60;83.10
81315;DHT22;72214;52.510;5.718;2023-12-20T07:50:35;7.60;83.00
81315;DHT22;72214;52.510;5.718;2023-12-20T07:53:04;7.60;83.00
81315;DHT22;72214;52.510;5.718;2023-12-20T07:55:33;7.60;83.00
81315;DHT22;72214;52.510;5.718;2023-12-20T07:58:05;7.60;83.10
81315;DHT22;72214;52.510;5.718;2023-12-20T08:00:34;7.60;83.00
81315;DHT22;72214;52.510;5.718;2023-12-20T08:03:04;7.60;83.00
81315;DHT22;72214;52.510;5.718;2023-12-20T08:05:33;7.70;83.00
81315;DHT22;72214;52.510;5.718;2023-12-20T08:08:04;7.70;83.00
81315;DHT22;72214;52.510;5.718;2023-12-20T08:10:33;7.80;83.00
81315;DHT22;72214;52.510;5.718;2023-12-20T08:13:04;7.80;83.00
81315;DHT22;72214;52.510;5.718;2023-12-20T08:15:34;7.80;82.90
81315;DHT22;72214;52.510;5.718;2023-12-20T08:18:04;7.80;82.90
81315;DHT22;72214;52.510;5.718;2023-12-20T08:20:33;7.80;82.80
81315;DHT22;72214;52.510;5.718;2023-12-20T08:23:03;7.80;82.90
81315;DHT22;72214;52.510;5.718;2023-12-20T08:25:32;7.80;82.90
81315;DHT22;72214;52.510;5.718;2023-12-20T08:28:05;7.80;82.90
81315;DHT22;72214;52.510;5.718;2023-12-20T08:30:34;7.80;82.90
81315;DHT22;72214;52.510;5.718;2023-12-20T08:33:03;7.80;82.80
81315;DHT22;72214;52.510;5.718;2023-12-20T08:35:37;7.90;82.90
81315;DHT22;72214;52.510;5.718;2023-12-20T08:38:06;7.90;82.80
81315;DHT22;72214;52.510;5.718;2023-12-20T08:40:35;7.90;82.80
81315;DHT22;72214;52.510;5.718;2023-12-20T08:43:07;7.90;82.80
81315;DHT22;72214;52.510;5.718;2023-12-20T08:45:36;8.00;82.80
81315;DHT22;72214;52.510;5.718;2023-12-20T08:48:06;8.00;82.80
81315;DHT22;72214;52.510;5.718;2023-12-20T08:50:35;8.00;82.80
81315;DHT22;72214;52.510;5.718;2023-12-20T08:53:05;8.00;82.80
81315;DHT22;72214;52.510;5.718;2023-12-20T08:55:34;8.00;82.70
81315;DHT22;72214;52.510;5.718;2023-12-20T08:58:03;8.00;82.70
81315;DHT22;72214;52.510;5.718;2023-12-20T09:00:36;8.00;82.70
81315;DHT22;72214;52.510;5.718;2023-12-20T09:03:06;8.00;82.70
81315;DHT22;72214;52.510;5.718;2023-12-20T09:05:35;8.00;82.70
81315;DHT22;72214;52.510;5.718;2023-12-20T09:08:05;8.00;82.70
81315;DHT22;72214;52.510;5.718;2023-12-20T09:10:36;8.10;82.70
81315;DHT22;72214;52.510;5.718;2023-12-20T09:13:06;8.10;82.60
81315;DHT22;72214;52.510;5.718;2023-12-20T09:15:37;8.10;82.60
81315;DHT22;72214;52.510;5.718;2023-12-20T09:18:07;8.10;82.60
81315;DHT22;72214;52.510;5.718;2023-12-20T09:20:36;8.10;82.70
81315;DHT22;72214;52.510;5.718;2023-12-20T09:23:05;8.10;82.50
81315;DHT22;72214;52.510;5.718;2023-12-20T09:25:34;8.20;82.60
81315;DHT22;72214;52.510;5.718;2023-12-20T09:28:04;8.20;82.60
81315;DHT22;72214;52.510;5.718;2023-12-20T09:30:33;8.20;82.60
81315;DHT22;72214;52.510;5.718;2023-12-20T09:33:08;8.20;82.50
81315;DHT22;72214;52.510;5.718;2023-12-20T09:35:37;8.20;82.50
81315;DHT22;72214;52.510;5.718;2023-12-20T09:38:06;8.20;82.50
81315;DHT22;72214;52.510;5.718;2023-12-20T09:40:36;8.20;82.50
81315;DHT22;72214;52.510;5.718;2023-12-20T09:43:13;8.10;82.60
81315;DHT22;72214;52.510;5.718;2023-12-20T09:45:46;8.20;82.60
81315;DHT22;72214;52.510;5.718;2023-12-20T09:48:19;8.20;82.60
81315;DHT22;72214;52.510;5.718;2023-12-20T09:50:49;8.20;82.50
81315;DHT22;72214;52.510;5.718;2023-12-20T09:53:18;8.30;82.40
81315;DHT22;72214;52.510;5.718;2023-12-20T09:55:49;8.30;82.40
81315;DHT22;72214;52.510;5.718;2023-12-20T09:58:18;8.30;82.40
81315;DHT22;72214;52.510;5.718;2023-12-20T10:00:48;8.30;82.40
81315;DHT22;72214;52.510;5.718;2023-12-20T10:03:23;8.40;82.40
81315;DHT22;72214;52.510;5.718;2023-12-20T10:05:55;8.40;82.30
81315;DHT22;72214;52.510;5.718;2023-12-20T10:08:26;8.50;82.30
81315;DHT22;72214;52.510;5.718;2023-12-20T10:10:56;8.50;82.20
81315;DHT22;72214;52.510;5.718;2023-12-20T10:13:28;8.60;82.20
81315;DHT22;72214;52.510;5.718;2023-12-20T10:15:57;8.60;82.20
81315;DHT22;72214;52.510;5.718;2023-12-20T10:18:30;8.60;82.20
81315;DHT22;72214;52.510;5.718;2023-12-20T10:21:00;8.60;82.20
81315;DHT22;72214;52.510;5.718;2023-12-20T10:23:29;8.60;82.20
81315;DHT22;72214;52.510;5.718;2023-12-20T10:25:59;8.60;82.30
81315;DHT22;72214;52.510;5.718;2023-12-20T10:28:33;8.60;82.30
81315;DHT22;72214;52.510;5.718;2023-12-20T10:31:03;8.60;82.30
81315;DHT22;72214;52.510;5.718;2023-12-20T10:33:35;8.60;82.30
81315;DHT22;72214;52.510;5.718;2023-12-20T10:36:05;8.60;82.30
81315;DHT22;72214;52.510;5.718;2023-12-20T10:38:36;8.70;82.30
81315;DHT22;72214;52.510;5.718;2023-12-20T10:41:07;8.80;82.20
81315;DHT22;72214;52.510;5.718;2023-12-20T10:43:38;8.80;82.10
81315;DHT22;72214;52.510;5.718;2023-12-20T10:46:08;8.80;82.10
81315;DHT22;72214;52.510;5.718;2023-12-20T10:48:40;8.80;82.20
81315;DHT22;72214;52.510;5.718;2023-12-20T10:51:10;8.80;82.20
81315;DHT22;72214;52.510;5.718;2023-12-20T10:53:41;8.70;82.20
81315;DHT22;72214;52.510;5.718;2023-12-20T10:56:14;8.60;82.30
81315;DHT22;72214;52.510;5.718;2023-12-20T10:58:45;8.60;82.40
81315;DHT22;72214;52.510;5.718;2023-12-20T11:01:16;8.60;82.50
81315;DHT22;72214;52.510;5.718;2023-12-20T11:03:52;8.50;82.60
81315;DHT22;72214;52.510;5.718;2023-12-20T11:06:28;8.50;82.60
81315;DHT22;72214;52.510;5.718;2023-12-20T11:09:08;8.40;82.70
81315;DHT22;72214;52.510;5.718;2023-12-20T11:11:52;8.40;82.80
81315;DHT22;72214;52.510;5.718;2023-12-20T11:14:29;8.30;82.80
81315;DHT22;72214;52.510;5.718;2023-12-20T11:17:06;8.30;82.80
81315;DHT22;72214;52.510;5.718;2023-12-20T11:22:31;8.30;82.90
81315;DHT22;72214;52.510;5.718;2023-12-20T11:25:04;8.30;82.90
81315;DHT22;72214;52.510;5.718;2023-12-20T11:27:34;8.40;82.90
81315;DHT22;72214;52.510;5.718;2023-12-20T11:30:05;8.40;82.80
81315;DHT22;72214;52.510;5.718;2023-12-20T11:32:36;8.40;82.70
81315;DHT22;72214;52.510;5.718;2023-12-20T11:35:20;8.40;82.80
81315;DHT22;72214;52.510;5.718;2023-12-20T11:37:51;8.40;82.70
81315;DHT22;72214;52.510;5.718;2023-12-20T11:40:20;8.40;82.80
81315;DHT22;72214;52.510;5.718;2023-12-20T11:42:52;8.40;82.70
81315;DHT22;72214;52.510;5.718;2023-12-20T11:45:24;8.40;82.90
81315;DHT22;72214;52.510;5.718;2023-12-20T11:47:53;8.40;82.90
81315;DHT22;72214;52.510;5.718;2023-12-20T11:50:26;8.40;82.90
81315;DHT22;72214;52.510;5.718;2023-12-20T11:52:56;8.30;82.90
81315;DHT22;72214;52.510;5.718;2023-12-20T11:55:25;8.40;83.00
81315;DHT22;72214;52.510;5.718;2023-12-20T11:57:54;8.30;82.90
81315;DHT22;72214;52.510;5.718;2023-12-20T12:00:25;8.30;83.00
81315;DHT22;72214;52.510;5.718;2023-12-20T12:02:57;8.30;82.90
81315;DHT22;72214;52.510;5.718;2023-12-20T12:05:31;8.30;82.90
81315;DHT22;72214;52.510;5.718;2023-12-20T12:08:02;8.40;82.90
81315;DHT22;72214;52.510;5.718;2023-12-20T12:10:31;8.40;82.90
81315;DHT22;72214;52.510;5.718;2023-12-20T12:13:01;8.40;82.90
81315;DHT22;72214;52.510;5.718;2023-12-20T12:15:30;8.30;82.90
81315;DHT22;72214;52.510;5.718;2023-12-20T12:17:59;8.30;82.90
81315;DHT22;72214;52.510;5.718;2023-12-20T12:20:31;8.30;83.00
81315;DHT22;72214;52.510;5.718;2023-12-20T12:23:02;8.30;83.00
81315;DHT22;72214;52.510;5.718;2023-12-20T12:25:34;8.30;83.00
81315;DHT22;72214;52.510;5.718;2023-12-20T12:28:05;8.30;83.00
81315;DHT22;72214;52.510;5.718;2023-12-20T12:30:34;8.30;83.00
81315;DHT22;72214;52.510;5.718;2023-12-20T12:33:03;8.40;83.00
81315;DHT22;72214;52.510;5.718;2023-12-20T12:35:35;8.40;83.00
81315;DHT22;72214;52.510;5.718;2023-12-20T12:38:07;8.40;82.90
81315;DHT22;72214;52.510;5.718;2023-12-20T12:40:37;8.40;82.90
81315;DHT22;72214;52.510;5.718;2023-12-20T12:43:06;8.40;83.00
81315;DHT22;72214;52.510;5.718;2023-12-20T12:45:35;8.40;82.90
81315;DHT22;72214;52.510;5.718;2023-12-20T12:48:06;8.40;82.90
81315;DHT22;72214;52.510;5.718;2023-12-20T12:50:38;8.40;82.90
81315;DHT22;72214;52.510;5.718;2023-12-20T12:53:07;8.40;82.90
81315;DHT22;72214;52.510;5.718;2023-12-20T12:55:36;8.40;82.90
81315;DHT22;72214;52.510;5.718;2023-12-20T12:58:05;8.40;82.90
81315;DHT22;72214;52.510;5.718;2023-12-20T13:00:34;8.40;82.90
81315;DHT22;72214;52.510;5.718;2023-12-20T13:03:04;8.40;83.00
81315;DHT22;72214;52.510;5.718;2023-12-20T13:05:33;8.40;82.90
81315;DHT22;72214;52.510;5.718;2023-12-20T13:08:05;8.40;82.90
81315;DHT22;72214;52.510;5.718;2023-12-20T13:10:35;8.40;83.00
81315;DHT22;72214;52.510;5.718;2023-12-20T13:13:04;8.40;83.00
81315;DHT22;72214;52.510;5.718;2023-12-20T13:15:33;8.40;83.00
81315;DHT22;72214;52.510;5.718;2023-12-20T13:18:03;8.40;82.90
81315;DHT22;72214;52.510;5.718;2023-12-20T13:20:33;8.40;82.90
81315;DHT22;72214;52.510;5.718;2023-12-20T13:23:05;8.40;82.90
81315;DHT22;72214;52.510;5.718;2023-12-20T13:25:34;8.40;83.00
81315;DHT22;72214;52.510;5.718;2023-12-20T13:28:04;8.50;82.90
81315;DHT22;72214;52.510;5.718;2023-12-20T13:30:34;8.50;83.00
81315;DHT22;72214;52.510;5.718;2023-12-20T13:33:03;8.50;83.00
81315;DHT22;72214;52.510;5.718;2023-12-20T13:35:33;8.50;83.00
81315;DHT22;72214;52.510;5.718;2023-12-20T13:38:05;8.40;83.00
81315;DHT22;72214;52.510;5.718;2023-12-20T13:40:34;8.50;82.90
81315;DHT22;72214;52.510;5.718;2023-12-20T13:43:04;8.50;82.90
81315;DHT22;72214;52.510;5.718;2023-12-20T13:45:33;8.50;82.90
81315;DHT22;72214;52.510;5.718;2023-12-20T13:48:02;8.50;82.90
81315;DHT22;72214;52.510;5.718;2023-12-20T13:50:31;8.50;82.90
81315;DHT22;72214;52.510;5.718;2023-12-20T13:53:00;8.50;82.90
81315;DHT22;72214;52.510;5.718;2023-12-20T13:55:33;8.50;82.80
81315;DHT22;72214;52.510;5.718;2023-12-20T13:58:02;8.50;82.80
81315;DHT22;72214;52.510;5.718;2023-12-20T14:00:31;8.50;82.80
81315;DHT22;72214;52.510;5.718;2023-12-20T14:03:00;8.50;82.80
81315;DHT22;72214;52.510;5.718;2023-12-20T14:05:29;8.50;82.80
81315;DHT22;72214;52.510;5.718;2023-12-20T14:07:59;8.50;82.80
81315;DHT22;72214;52.510;5.718;2023-12-20T14:10:28;8.50;82.80
81315;DHT22;72214;52.510;5.718;2023-12-20T14:13:00;8.50;82.80
81315;DHT22;72214;52.510;5.718;2023-12-20T14:15:29;8.50;82.80
81315;DHT22;72214;52.510;5.718;2023-12-20T14:18:04;8.50;82.70
81315;DHT22;72214;52.510;5.718;2023-12-20T14:20:35;8.50;82.70
81315;DHT22;72214;52.510;5.718;2023-12-20T14:23:05;8.50;82.70
81315;DHT22;72214;52.510;5.718;2023-12-20T14:25:36;8.50;82.70
81315;DHT22;72214;52.510;5.718;2023-12-20T14:28:08;8.50;82.70
81315;DHT22;72214;52.510;5.718;2023-12-20T14:30:40;8.50;82.80
81315;DHT22;72214;52.510;5.718;2023-12-20T14:33:09;8.50;82.70
81315;DHT22;72214;52.510;5.718;2023-12-20T14:35:38;8.50;82.70
81315;DHT22;72214;52.510;5.718;2023-12-20T14:38:08;8.50;82.80
81315;DHT22;72214;52.510;5.718;2023-12-20T14:40:39;8.50;82.70
81315;DHT22;72214;52.510;5.718;2023-12-20T14:43:11;8.50;82.70
81315;DHT22;72214;52.510;5.718;2023-12-20T14:45:40;8.50;82.60
81315;DHT22;72214;52.510;5.718;2023-12-20T14:48:09;8.50;82.70
81315;DHT22;72214;52.510;5.718;2023-12-20T14:50:39;8.50;82.60
81315;DHT22;72214;52.510;5.718;2023-12-20T14:53:09;8.50;82.60
81315;DHT22;72214;52.510;5.718;2023-12-20T14:55:38;8.50;82.70
81315;DHT22;72214;52.510;5.718;2023-12-20T14:58:07;8.50;82.60
81315;DHT22;72214;52.510;5.718;2023-12-20T15:00:39;8.50;82.60
81315;DHT22;72214;52.510;5.718;2023-12-20T15:03:08;8.50;82.50
81315;DHT22;72214;52.510;5.718;2023-12-20T15:05:37;8.60;82.60
81315;DHT22;72214;52.510;5.718;2023-12-20T15:08:07;8.50;82.60
81315;DHT22;72214;52.510;5.718;2023-12-20T15:10:37;8.60;82.50
81315;DHT22;72214;52.510;5.718;2023-12-20T15:13:06;8.60;82.60
81315;DHT22;72214;52.510;5.718;2023-12-20T15:15:35;8.60;82.50
81315;DHT22;72214;52.510;5.718;2023-12-20T15:18:07;8.60;82.60
81315;DHT22;72214;52.510;5.718;2023-12-20T15:20:36;8.60;82.60
81315;DHT22;72214;52.510;5.718;2023-12-20T15:23:05;8.60;82.60
81315;DHT22;72214;52.510;5.718;2023-12-20T15:25:34;8.60;82.60
81315;DHT22;72214;52.510;5.718;2023-12-20T15:28:03;8.60;82.60
81315;DHT22;72214;52.510;5.718;2023-12-20T15:30:33;8.60;82.60
81315;DHT22;72214;52.510;5.718;2023-12-20T15:33:02;8.60;82.60
81315;DHT22;72214;52.510;5.718;2023-12-20T15:35:34;8.60;82.60
81315;DHT22;72214;52.510;5.718;2023-12-20T15:38:03;8.60;82.60
81315;DHT22;72214;52.510;5.718;2023-12-20T15:40:32;8.60;82.60
81315;DHT22;72214;52.510;5.718;2023-12-20T15:43:01;8.60;82.70
81315;DHT22;72214;52.510;5.718;2023-12-20T15:45:31;8.60;82.60
81315;DHT22;72214;52.510;5.718;2023-12-20T15:48:00;8.60;82.60
81315;DHT22;72214;52.510;5.718;2023-12-20T15:50:30;8.60;82.60
81315;DHT22;72214;52.510;5.718;2023-12-20T15:53:02;8.60;82.60
81315;DHT22;72214;52.510;5.718;2023-12-20T15:55:31;8.60;82.70
81315;DHT22;72214;52.510;5.718;2023-12-20T15:58:00;8.60;82.60
81315;DHT22;72214;52.510;5.718;2023-12-20T16:00:29;8.60;82.60
81315;DHT22;72214;52.510;5.718;2023-12-20T16:02:58;8.60;82.60
81315;DHT22;72214;52.510;5.718;2023-12-20T16:05:29;8.60;82.60